createdAt,value
2023-03-03T00:00:43.798Z,68.53
2023-03-03T00:04:05.476Z,68.47
2023-03-03T00:07:27.084Z,68.16
2023-03-03T00:10:49.155Z,68.54
2023-03-03T00:14:32.563Z,69.24
2023-03-03T00:17:54.984Z,70.63
2023-03-03T00:21:31.594Z,70.90
2023-03-03T00:24:53.997Z,70.61
2023-03-03T00:28:39.602Z,70.75
2023-03-03T00:32:25.725Z,70.25
2023-03-03T00:35:47.340Z,70.71
2023-03-03T00:39:30.426Z,72.13
2023-03-03T00:42:54.903Z,72.83
2023-03-03T00:46:20.529Z,72.04
2023-03-03T00:49:42.904Z,71.19
2023-03-03T00:53:17.138Z,70.31
2023-03-03T00:56:39.067Z,70.09
2023-03-03T01:00:00.715Z,69.08
2023-03-03T01:03:25.148Z,70.21
2023-03-03T01:06:49.831Z,69.27
2023-03-03T01:10:16.025Z,69.77
2023-03-03T01:13:41.321Z,69.32
2023-03-03T01:17:03.697Z,69.78
2023-03-03T01:20:28.314Z,71.13
2023-03-03T01:23:49.881Z,71.46
2023-03-03T01:27:11.530Z,71.19
2023-03-03T01:30:33.276Z,70.26
2023-03-03T01:33:57.117Z,70.77
2023-03-03T01:37:21.578Z,70.37
2023-03-03T01:40:43.225Z,70.75
2023-03-03T01:44:04.963Z,70.85
2023-03-03T01:47:34.371Z,70.66
2023-03-03T01:51:36.708Z,70.22
2023-03-03T01:55:04.262Z,69.83
2023-03-03T01:58:36.071Z,71.13
2023-03-03T02:02:00.232Z,71.87
2023-03-03T02:05:22.404Z,71.67
2023-03-03T02:09:01.985Z,72.00
2023-03-03T02:12:33.862Z,71.29
2023-03-03T02:15:56.763Z,71.74
2023-03-03T02:19:39.494Z,71.58
2023-03-03T02:23:13.671Z,71.51
2023-03-03T02:26:41.253Z,70.80
2023-03-03T02:30:16.622Z,70.79
2023-03-03T02:33:38.632Z,72.39
2023-03-03T02:37:04.036Z,73.40
2023-03-03T02:40:28.333Z,71.90
2023-03-03T02:44:03.406Z,72.33
2023-03-03T02:47:24.977Z,71.78
2023-03-03T02:50:49.048Z,72.17
2023-03-03T02:54:12.607Z,71.61
2023-03-03T02:57:34.220Z,72.37
2023-03-03T03:00:55.965Z,71.46
2023-03-03T03:04:26.187Z,71.85
2023-03-03T03:07:48.005Z,72.14
2023-03-03T03:11:11.885Z,71.90
2023-03-03T03:14:33.443Z,73.50
2023-03-03T03:17:55.129Z,72.30
2023-03-03T03:21:19.206Z,71.09
2023-03-03T03:24:43.678Z,71.55
2023-03-03T03:28:05.248Z,71.94
2023-03-03T03:31:26.839Z,72.87
2023-03-03T03:34:48.497Z,73.21
2023-03-03T03:38:10.403Z,72.27
2023-03-03T03:41:32.678Z,72.05
2023-03-03T03:44:54.314Z,71.94
2023-03-03T03:48:19.997Z,71.74
2023-03-03T03:51:42.055Z,71.84
2023-03-03T03:55:06.457Z,72.65
2023-03-03T03:58:28.109Z,71.84
2023-03-03T04:01:51.933Z,71.91
2023-03-03T04:05:13.762Z,71.53
2023-03-03T04:08:35.317Z,71.91
2023-03-03T04:11:57.029Z,72.25
2023-03-03T04:15:20.771Z,72.68
2023-03-03T04:18:44.887Z,73.12
2023-03-03T04:22:10.529Z,72.46
2023-03-03T04:25:32.415Z,72.36
2023-03-03T04:28:54.021Z,72.20
2023-03-03T04:32:16.386Z,71.01
2023-03-03T04:35:40.452Z,72.04
2023-03-03T04:39:02.207Z,71.92
2023-03-03T04:42:23.834Z,71.61
2023-03-03T04:45:45.425Z,72.21
2023-03-03T04:49:12.361Z,72.20
2023-03-03T04:52:34.191Z,72.46
2023-03-03T04:55:57.994Z,73.24
2023-03-03T04:59:19.728Z,74.66
2023-03-03T05:02:41.933Z,75.14
2023-03-03T05:06:03.649Z,74.74
2023-03-03T05:09:27.846Z,74.30
2023-03-03T05:12:49.465Z,74.83
2023-03-03T05:16:15.983Z,74.41
2023-03-03T05:19:37.621Z,74.12
2023-03-03T05:23:01.569Z,75.00
2023-03-03T05:26:26.924Z,75.13
2023-03-03T05:29:51.394Z,74.22
2023-03-03T05:33:15.448Z,73.83
2023-03-03T05:36:37.048Z,73.52
2023-03-03T05:39:58.678Z,74.89
2023-03-03T05:43:20.297Z,74.75
2023-03-03T05:46:44.242Z,75.74
2023-03-03T05:50:08.662Z,75.93
2023-03-03T05:53:30.614Z,75.02
2023-03-03T05:56:52.276Z,74.07
2023-03-03T06:00:17.793Z,73.90
2023-03-03T06:03:39.400Z,74.09
2023-03-03T06:07:01.400Z,74.47
2023-03-03T06:10:23.062Z,75.26
2023-03-03T06:13:47.081Z,75.39
2023-03-03T06:17:08.680Z,75.46
2023-03-03T06:20:30.389Z,75.64
2023-03-03T06:23:51.980Z,75.41
2023-03-03T06:27:13.883Z,74.22
2023-03-03T06:30:35.661Z,73.27
2023-03-03T06:33:57.439Z,72.90
2023-03-03T06:37:21.512Z,74.25
2023-03-03T06:40:46.039Z,73.16
2023-03-03T06:44:07.557Z,72.70
2023-03-03T06:47:29.169Z,73.48
2023-03-03T06:50:52.985Z,72.41
2023-03-03T06:54:21.101Z,72.20
2023-03-03T06:57:44.985Z,72.79
2023-03-03T07:01:16.258Z,72.66
2023-03-03T07:04:45.560Z,73.99
2023-03-03T07:08:14.202Z,78.72
2023-03-03T07:11:40.951Z,81.09
2023-03-03T07:15:36.506Z,78.51
2023-03-03T07:19:05.331Z,76.86
2023-03-03T07:22:31.085Z,76.15
2023-03-03T07:25:53.042Z,75.51
2023-03-03T07:29:33.653Z,69.35
2023-03-03T07:32:58.284Z,69.86
2023-03-03T07:36:26.762Z,70.94
2023-03-03T07:39:53.558Z,71.43
2023-03-03T07:43:38.086Z,72.03
2023-03-03T07:47:02.650Z,72.18
2023-03-03T07:50:26.859Z,71.76
2023-03-03T07:53:49.425Z,71.91
2023-03-03T07:57:17.445Z,71.94
2023-03-03T08:01:10.007Z,71.53
2023-03-03T08:04:52.835Z,71.61
2023-03-03T08:08:31.289Z,71.47
2023-03-03T08:12:30.624Z,71.86
2023-03-03T08:16:12.496Z,71.56
2023-03-03T08:19:36.669Z,71.91
2023-03-03T08:22:58.240Z,71.22
2023-03-03T08:26:24.542Z,71.06
2023-03-03T08:29:48.206Z,70.14
2023-03-03T08:33:10.605Z,70.78
2023-03-03T08:36:34.579Z,70.52
2023-03-03T08:39:58.703Z,70.19
2023-03-03T08:43:22.760Z,69.92
2023-03-03T08:46:46.861Z,69.78
2023-03-03T08:50:08.994Z,69.45
2023-03-03T08:53:33.600Z,68.84
2023-03-03T08:56:55.231Z,68.18
2023-03-03T09:00:18.610Z,68.29
2023-03-03T09:03:40.258Z,67.95
2023-03-03T09:07:02.181Z,66.62
2023-03-03T09:10:29.437Z,66.78
2023-03-03T09:13:53.473Z,66.29
2023-03-03T09:17:28.810Z,66.41
2023-03-03T09:20:55.143Z,67.19
2023-03-03T09:24:24.212Z,66.94
2023-03-03T09:27:45.920Z,67.05
2023-03-03T09:31:26.133Z,66.18
2023-03-03T09:34:48.385Z,66.72
2023-03-03T09:38:36.186Z,64.71
2023-03-03T09:42:06.778Z,64.50
2023-03-03T09:45:41.621Z,62.71
2023-03-03T09:49:15.110Z,62.50
2023-03-03T09:52:55.183Z,61.03
2023-03-03T09:56:34.775Z,58.82
2023-03-03T10:00:05.462Z,57.58
2023-03-03T10:03:54.124Z,55.27
2023-03-03T10:07:37.574Z,53.79
2023-03-03T10:11:05.077Z,54.41
2023-03-03T10:14:51.750Z,55.57
2023-03-03T10:18:25.296Z,55.00
2023-03-03T10:22:04.409Z,53.87
2023-03-03T10:25:48.821Z,52.73
2023-03-03T10:29:30.874Z,50.22
2023-03-03T10:33:23.533Z,51.80
2023-03-03T10:37:02.654Z,49.13
2023-03-03T10:40:33.193Z,50.22
2023-03-03T10:44:06.799Z,49.03
2023-03-03T10:47:28.409Z,48.46
2023-03-03T10:51:21.949Z,48.01
2023-03-03T10:55:13.664Z,47.35
2023-03-03T10:58:46.301Z,44.62
2023-03-03T11:02:34.507Z,44.36
2023-03-03T11:06:06.533Z,43.51
2023-03-03T11:09:37.931Z,45.81
2023-03-03T11:13:41.606Z,44.18
2023-03-03T11:17:14.538Z,44.54
2023-03-03T11:20:43.194Z,44.02
2023-03-03T11:24:16.742Z,44.09
2023-03-03T11:28:15.882Z,43.15
2023-03-03T11:31:48.056Z,44.39
2023-03-03T11:35:17.683Z,44.36
2023-03-03T11:38:54.134Z,43.10
2023-03-03T11:43:03.582Z,44.29
2023-03-03T11:46:51.680Z,43.63
2023-03-03T11:50:28.633Z,44.02
2023-03-03T11:54:15.270Z,42.60
2023-03-03T11:57:46.129Z,41.99
2023-03-03T12:01:16.598Z,42.00
2023-03-03T12:04:44.893Z,42.41
2023-03-03T12:08:18.728Z,42.83
2023-03-03T12:11:46.381Z,43.23
2023-03-03T12:15:19.666Z,44.15
2023-03-03T12:19:13.743Z,43.67
2023-03-03T12:22:45.920Z,44.46
2023-03-03T12:27:10.472Z,42.94
2023-03-03T12:30:40.867Z,42.95
2023-03-03T12:34:14.738Z,44.07
2023-03-03T12:37:48.178Z,45.08
2023-03-03T12:41:31.126Z,44.36
2023-03-03T12:45:11.220Z,43.56
2023-03-03T12:48:41.259Z,44.43
2023-03-03T12:52:36.902Z,44.67
2023-03-03T12:56:08.006Z,46.29
2023-03-03T12:59:41.505Z,45.96
2023-03-03T13:03:09.648Z,46.96
2023-03-03T13:06:37.349Z,47.96
2023-03-03T13:10:12.748Z,49.06
2023-03-03T13:13:59.110Z,48.60
2023-03-03T13:17:32.394Z,49.02
2023-03-03T13:21:05.968Z,49.34
2023-03-03T13:24:37.875Z,49.40
2023-03-03T13:28:21.126Z,50.09
2023-03-03T13:31:51.683Z,49.78
2023-03-03T13:35:25.738Z,50.22
2023-03-03T13:38:53.564Z,51.22
2023-03-03T13:42:41.409Z,50.39
2023-03-03T13:46:24.947Z,51.09
2023-03-03T13:50:09.125Z,51.57
2023-03-03T13:53:47.173Z,52.17
2023-03-03T13:57:27.647Z,51.98
2023-03-03T14:01:01.970Z,49.71
2023-03-03T14:05:08.733Z,49.63
2023-03-03T14:08:33.136Z,48.37
2023-03-03T14:12:14.664Z,47.61
2023-03-03T14:15:50.553Z,46.67
2023-03-03T14:19:26.243Z,45.69
2023-03-03T14:23:01.927Z,47.67
2023-03-03T14:26:23.642Z,50.54
2023-03-03T14:29:47.221Z,51.26
2023-03-03T14:33:09.020Z,51.15
2023-03-03T14:36:39.101Z,48.04
2023-03-03T14:40:03.637Z,47.93
2023-03-03T14:43:37.570Z,47.79
2023-03-03T14:47:12.189Z,47.67
2023-03-03T14:50:39.866Z,47.46
2023-03-03T14:54:01.648Z,47.95
2023-03-03T14:57:35.811Z,48.87
2023-03-03T15:01:21.397Z,49.36
2023-03-03T15:04:50.136Z,49.86
2023-03-03T15:08:15.091Z,54.18
2023-03-03T15:11:36.664Z,49.76
2023-03-03T15:15:04.319Z,52.70
2023-03-03T15:18:27.686Z,52.32
2023-03-03T15:21:57.203Z,52.23
2023-03-03T15:25:42.913Z,46.44
2023-03-03T15:29:29.518Z,46.82
2023-03-03T15:33:07.183Z,47.84
2023-03-03T15:36:41.246Z,47.99
2023-03-03T15:40:27.817Z,48.30
2023-03-03T15:43:49.379Z,48.52
2023-03-03T15:47:59.689Z,49.19
2023-03-03T15:52:03.517Z,48.67
2023-03-03T15:55:30.994Z,48.60
2023-03-03T15:59:20.051Z,48.61
2023-03-03T16:02:52.702Z,49.02
2023-03-03T16:06:45.875Z,47.78
2023-03-03T16:10:29.483Z,48.75
2023-03-03T16:14:04.180Z,48.33
2023-03-03T16:17:41.960Z,48.53
2023-03-03T16:21:03.823Z,48.99
2023-03-03T16:24:42.218Z,49.96
2023-03-03T16:28:10.711Z,49.63
2023-03-03T16:31:42.877Z,49.96
2023-03-03T16:35:28.310Z,49.55
2023-03-03T16:39:02.157Z,49.74
2023-03-03T16:42:36.312Z,50.95
2023-03-03T16:46:08.229Z,50.54
2023-03-03T16:50:13.323Z,51.62
2023-03-03T16:53:47.000Z,51.18
2023-03-03T16:57:28.133Z,51.40
2023-03-03T17:00:49.656Z,51.57
2023-03-03T17:04:39.526Z,51.12
2023-03-03T17:08:26.003Z,50.58
2023-03-03T17:12:06.711Z,52.15
2023-03-03T17:15:34.565Z,51.34
2023-03-03T17:19:26.827Z,52.12
2023-03-03T17:22:54.359Z,52.44
2023-03-03T17:26:36.941Z,52.10
2023-03-03T17:30:21.859Z,51.91
2023-03-03T17:34:08.150Z,52.63
2023-03-03T17:37:57.646Z,52.70
2023-03-03T17:41:28.122Z,52.65
2023-03-03T17:45:07.923Z,52.17
2023-03-03T17:48:50.943Z,52.42
2023-03-03T17:52:22.993Z,52.17
2023-03-03T17:55:50.293Z,52.59
2023-03-03T17:59:37.365Z,52.93
2023-03-03T18:03:34.235Z,53.83
2023-03-03T18:07:23.736Z,55.55
2023-03-03T18:11:13.850Z,55.16
2023-03-03T18:15:04.368Z,56.05
2023-03-03T18:18:56.579Z,54.87
2023-03-03T18:22:46.681Z,55.59
2023-03-03T18:26:30.055Z,55.48
2023-03-03T18:30:20.569Z,55.65
2023-03-03T18:34:00.184Z,55.87
2023-03-03T18:37:33.456Z,55.92
2023-03-03T18:41:11.208Z,56.35
2023-03-03T18:44:37.750Z,55.95
2023-03-03T18:48:12.218Z,56.66
2023-03-03T18:51:42.108Z,56.72
2023-03-03T18:55:09.635Z,57.72
2023-03-03T18:58:42.781Z,57.75
2023-03-03T19:02:13.374Z,57.51
2023-03-03T19:05:50.267Z,57.70
2023-03-03T19:09:21.154Z,57.61
2023-03-03T19:12:45.419Z,58.50
2023-03-03T19:16:28.900Z,58.49
2023-03-03T19:20:18.486Z,59.14
2023-03-03T19:23:51.024Z,59.55
2023-03-03T19:27:30.208Z,59.99
2023-03-03T19:30:52.972Z,60.18
2023-03-03T19:34:17.399Z,59.98
2023-03-03T19:37:38.969Z,60.18
2023-03-03T19:41:27.712Z,61.03
2023-03-03T19:45:26.506Z,60.98
2023-03-03T19:49:05.202Z,59.80
2023-03-03T19:52:28.751Z,59.30
2023-03-03T19:55:55.702Z,58.41
2023-03-03T19:59:31.635Z,57.22
2023-03-03T20:03:08.272Z,55.91
2023-03-03T20:06:32.981Z,56.84
2023-03-03T20:10:16.143Z,55.60
2023-03-03T20:13:58.389Z,54.76
2023-03-03T20:17:35.651Z,53.80
2023-03-03T20:21:04.888Z,54.17
2023-03-03T20:24:52.868Z,53.32
2023-03-03T20:28:32.706Z,53.77
2023-03-03T20:32:12.399Z,54.06
2023-03-03T20:35:52.693Z,54.83
2023-03-03T20:39:28.494Z,55.64
2023-03-03T20:43:14.673Z,55.48
2023-03-03T20:46:57.949Z,56.13
2023-03-03T20:50:36.637Z,55.75
2023-03-03T20:54:13.432Z,56.81
2023-03-03T20:57:47.814Z,57.52
2023-03-03T21:01:24.222Z,58.23
2023-03-03T21:04:46.054Z,59.41
2023-03-03T21:08:13.706Z,60.01
2023-03-03T21:11:38.452Z,60.03
2023-03-03T21:15:07.402Z,60.86
2023-03-03T21:18:29.064Z,61.44
2023-03-03T21:21:51.878Z,61.81
2023-03-03T21:25:55.007Z,60.83
2023-03-03T21:29:27.301Z,62.17
2023-03-03T21:32:50.760Z,61.87
2023-03-03T21:36:18.314Z,61.08
2023-03-03T21:39:42.013Z,62.34
2023-03-03T21:43:06.036Z,63.48
2023-03-03T21:46:27.678Z,63.61
2023-03-03T21:49:50.946Z,64.06
2023-03-03T21:53:15.032Z,64.27
2023-03-03T21:56:37.997Z,64.01
2023-03-03T22:00:02.182Z,63.96
2023-03-03T22:03:23.981Z,65.67
2023-03-03T22:06:45.700Z,63.56
2023-03-03T22:10:09.837Z,64.08
2023-03-03T22:13:33.984Z,64.39
2023-03-03T22:16:57.857Z,64.38
2023-03-03T22:20:21.915Z,64.56
2023-03-03T22:23:46.035Z,64.96
2023-03-03T22:27:12.198Z,64.51
2023-03-03T22:30:36.074Z,64.46
2023-03-03T22:33:58.257Z,65.36
2023-03-03T22:37:22.697Z,65.85
2023-03-03T22:40:44.407Z,66.41
2023-03-03T22:44:05.974Z,66.86
2023-03-03T22:47:27.974Z,67.48
2023-03-03T22:50:53.560Z,67.44
2023-03-03T22:54:15.234Z,67.85
2023-03-03T22:57:39.833Z,67.25
2023-03-03T23:01:05.457Z,66.63
2023-03-03T23:04:27.169Z,67.10
2023-03-03T23:07:51.252Z,67.45
2023-03-03T23:11:12.896Z,67.64
2023-03-03T23:14:34.583Z,67.28
2023-03-03T23:17:56.419Z,67.49
2023-03-03T23:21:20.495Z,67.87
2023-03-03T23:24:42.967Z,68.91
2023-03-03T23:28:06.819Z,68.40
2023-03-03T23:31:28.506Z,67.15
2023-03-03T23:34:54.553Z,67.55
2023-03-03T23:38:17.723Z,68.92
2023-03-03T23:41:39.510Z,68.43
2023-03-03T23:45:01.080Z,68.47
2023-03-03T23:48:22.914Z,69.44
2023-03-03T23:51:47.004Z,71.28
2023-03-03T23:55:11.722Z,72.45
2023-03-03T23:58:33.656Z,71.09
